Time;durP1;ratioP1;P1;durP2;ratioP2;P2;SDS_P1;SDS_P2;PMS_P1;PMS_P2;Temp;Humidity;BMP_temperature;BMP_pressure;BME280_temperature;BME280_humidity;BME280_pressure;Samples;Min_cycle;Max_cycle;Signal;HPM_P1;HPM_P2
2022/01/18 00:01:59;;;;;;;26.85;13.40;;;;;;;2.81;100.00;100619.09;5048334;28;20029;-70
2022/01/18 00:04:27;;;;;;;32.50;14.05;;;;;;;2.97;100.00;100634.06;5051594;28;20406;-70
2022/01/18 00:06:53;;;;;;;28.27;14.48;;;;;;;2.87;100.00;100627.66;5048846;28;20029;-70
2022/01/18 00:09:22;;;;;;;30.27;14.57;;;;;;;3.02;100.00;100642.59;5044480;28;20029;-70
2022/01/18 00:11:57;;;;;;;32.33;13.48;;;;;;;2.90;100.00;100628.28;5043000;28;20040;-69
2022/01/18 00:14:28;;;;;;;31.30;15.05;;;;;;;2.94;100.00;100644.97;5041117;28;20080;-70
2022/01/18 00:19:40;;;;;;;33.45;13.90;;;;;;;3.01;100.00;100619.47;5032866;28;20430;-70
2022/01/18 00:24:34;;;;;;;31.15;14.82;;;;;;;3.08;100.00;100639.47;5052905;28;20032;-70
2022/01/18 00:26:59;;;;;;;32.25;14.70;;;;;;;3.01;100.00;100649.78;5046940;28;20030;-70
2022/01/18 00:29:27;;;;;;;29.95;14.70;;;;;;;2.99;100.00;100642.81;5037205;28;20021;-70
2022/01/18 00:32:04;;;;;;;32.10;15.18;;;;;;;3.13;100.00;100644.50;5044027;28;20025;-70
2022/01/18 00:34:34;;;;;;;36.80;15.98;;;;;;;3.01;100.00;100640.88;5044503;28;20025;-70
2022/01/18 00:39:41;;;;;;;30.95;13.68;;;;;;;3.00;100.00;100628.47;5039063;28;20094;-70
2022/01/18 00:42:08;;;;;;;29.92;13.77;;;;;;;3.11;100.00;100647.28;5041667;28;20422;-70
2022/01/18 00:44:34;;;;;;;30.80;14.02;;;;;;;2.84;100.00;100604.66;5035118;28;20029;-70
2022/01/18 00:46:59;;;;;;;31.85;14.93;;;;;;;3.12;100.00;100665.03;5050041;28;20040;-70
2022/01/18 00:49:25;;;;;;;32.25;14.82;;;;;;;2.98;100.00;100649.97;5049048;28;20045;-70
2022/01/18 00:51:56;;;;;;;34.45;14.82;;;;;;;3.07;100.00;100670.72;5051191;28;20033;-70
2022/01/18 00:54:26;;;;;;;31.08;15.18;;;;;;;3.01;100.00;100672.97;5041901;28;20034;-70
2022/01/18 00:56:53;;;;;;;28.77;15.15;;;;;;;3.00;100.00;100680.13;5039771;28;20040;-70
2022/01/18 00:59:20;;;;;;;29.95;14.63;;;;;;;3.07;100.00;100661.84;5054547;28;20394;-70
2022/01/18 01:01:45;;;;;;;29.45;15.10;;;;;;;2.92;100.00;100645.06;5035738;28;20033;-70
2022/01/18 01:04:11;;;;;;;27.15;13.15;;;;;;;3.13;100.00;100660.53;5052049;28;20036;-70
2022/01/18 01:06:37;;;;;;;30.80;13.88;;;;;;;3.09;100.00;100659.88;5048757;28;20033;-70
2022/01/18 01:09:04;;;;;;;27.80;14.00;;;;;;;3.12;100.00;100670.41;5042558;28;20108;-70
2022/01/18 01:11:29;;;;;;;28.00;14.32;;;;;;;3.13;100.00;100671.25;5050634;28;20024;-70
2022/01/18 01:13:59;;;;;;;30.60;13.93;;;;;;;3.06;100.00;100670.81;5036831;28;20533;-70
2022/01/18 01:16:52;;;;;;;35.13;14.73;;;;;;;3.25;100.00;100686.41;5034566;28;20028;-70
2022/01/18 01:43:48;;;;;;;30.50;14.50;;;;;;;3.05;100.00;100679.81;5047904;28;20175;-70
2022/01/18 01:46:07;;;;;;;29.20;14.07;;;;;;;3.15;100.00;100699.59;5053417;28;20060;-70
2022/01/18 01:48:33;;;;;;;31.75;13.77;;;;;;;3.12;100.00;100707.84;5053979;28;20470;-70
2022/01/18 01:51:03;;;;;;;26.73;13.25;;;;;;;2.99;100.00;100688.28;5050149;28;20021;-70
2022/01/18 01:53:29;;;;;;;25.90;13.43;;;;;;;3.05;100.00;100707.41;5048894;28;20021;-70
2022/01/18 01:55:54;;;;;;;27.73;14.18;;;;;;;3.16;100.00;100721.84;5033155;28;20044;-70
2022/01/18 01:58:22;;;;;;;33.00;14.23;;;;;;;3.15;100.00;100715.63;5034388;28;20022;-70
2022/01/18 02:00:51;;;;;;;28.25;14.30;;;;;;;3.15;100.00;100712.97;5038996;28;20186;-70
2022/01/18 02:03:17;;;;;;;29.35;13.88;;;;;;;3.03;100.00;100685.25;5047204;28;20368;-70
2022/01/18 02:05:43;;;;;;;31.38;14.07;;;;;;;3.14;100.00;100705.03;5045599;28;20037;-70
2022/01/18 02:08:09;;;;;;;30.02;15.15;;;;;;;3.01;100.00;100683.66;5050830;28;20032;-67
2022/01/18 02:10:38;;;;;;;27.75;13.35;;;;;;;3.18;100.00;100696.69;5047716;28;20052;-70
2022/01/18 02:13:05;;;;;;;36.10;15.15;;;;;;;3.16;100.00;100698.63;5047628;28;20028;-70
2022/01/18 02:15:31;;;;;;;28.98;14.23;;;;;;;3.19;100.00;100705.56;5034750;28;20033;-70
2022/01/18 02:23:29;;;;;;;29.63;14.55;;;;;;;3.20;100.00;100704.63;5045485;28;20046;-70
2022/01/18 02:25:55;;;;;;;28.95;13.40;;;;;;;3.10;100.00;100688.38;5043932;28;20029;-70
2022/01/18 02:28:22;;;;;;;25.27;13.02;;;;;;;3.20;100.00;100700.13;5041514;28;20036;-71
2022/01/18 02:30:48;;;;;;;27.70;13.57;;;;;;;3.24;100.00;100704.25;5050715;28;20047;-70
2022/01/18 02:33:14;;;;;;;28.65;13.63;;;;;;;3.32;100.00;100703.72;5047410;28;20474;-68
2022/01/18 02:35:40;;;;;;;25.80;13.75;;;;;;;3.34;100.00;100706.28;5037383;28;20039;-68
2022/01/18 02:38:05;;;;;;;27.13;13.98;;;;;;;3.28;100.00;100704.91;5049792;28;20025;-67
2022/01/18 02:40:32;;;;;;;28.65;14.57;;;;;;;3.26;100.00;100699.66;5040355;28;20478;-70
2022/01/18 02:43:01;;;;;;;34.38;15.18;;;;;;;3.26;100.00;100707.69;5049852;28;20033;-70
2022/01/18 02:45:28;;;;;;;30.45;14.93;;;;;;;3.22;100.00;100708.91;5041627;28;20028;-68
2022/01/18 02:47:55;;;;;;;29.02;14.18;;;;;;;3.14;100.00;100684.50;5079244;22;20128;-69
2022/01/18 02:50:21;;;;;;;27.83;14.35;;;;;;;3.19;100.00;100690.38;5032929;28;20033;-67
2022/01/18 02:52:47;;;;;;;30.77;14.30;;;;;;;3.21;100.00;100690.28;5013467;28;20026;-67
2022/01/18 02:55:13;;;;;;;28.80;14.50;;;;;;;3.06;100.00;100662.78;5018313;28;20053;-67
2022/01/18 02:57:54;;;;;;;30.67;14.25;;;;;;;3.24;100.00;100690.03;5029828;28;20035;-67
2022/01/18 03:00:27;;;;;;;26.90;13.95;;;;;;;3.15;100.00;100664.81;5018383;28;20431;-67
2022/01/18 03:03:15;;;;;;;33.50;14.73;;;;;;;3.27;100.00;100682.66;5030053;28;20029;-68
2022/01/18 03:05:43;;;;;;;30.63;14.50;;;;;;;3.26;100.00;100677.41;5024829;28;20079;-68
2022/01/18 03:08:10;;;;;;;30.00;15.20;;;;;;;3.20;100.00;100665.34;5022153;28;20369;-68
2022/01/18 03:10:39;;;;;;;33.92;16.05;;;;;;;3.05;100.00;100653.06;5028987;28;20048;-67
2022/01/18 03:13:06;;;;;;;31.08;14.80;;;;;;;3.26;100.00;100683.63;5019628;28;20112;-68
2022/01/18 03:15:33;;;;;;;32.83;14.35;;;;;;;3.25;100.00;100681.91;5028314;28;20052;-67
2022/01/18 03:18:00;;;;;;;31.90;14.77;;;;;;;3.24;100.00;100685.53;5027857;28;20087;-68
2022/01/18 03:20:26;;;;;;;30.08;14.35;;;;;;;3.11;100.00;100668.66;5029594;28;20045;-67
2022/01/18 03:22:51;;;;;;;31.05;14.40;;;;;;;3.02;100.00;100640.78;5012855;28;20029;-67
2022/01/18 03:25:52;;;;;;;32.20;14.55;;;;;;;3.26;100.00;100693.47;5028325;28;20054;-67
2022/01/18 03:28:18;;;;;;;37.00;14.88;;;;;;;3.27;100.00;100688.03;5018009;28;20029;-67
2022/01/18 03:30:48;;;;;;;30.55;14.63;;;;;;;3.28;100.00;100681.69;5026977;28;20017;-67
2022/01/18 03:33:16;;;;;;;32.85;15.75;;;;;;;3.14;100.00;100665.75;5028140;28;20112;-67
2022/01/18 03:35:42;;;;;;;31.65;14.05;;;;;;;3.18;100.00;100677.13;5032151;28;20034;-67
2022/01/18 03:38:08;;;;;;;30.23;14.43;;;;;;;3.26;100.00;100683.63;5029428;28;20032;-68
2022/01/18 03:40:34;;;;;;;32.50;15.43;;;;;;;3.24;100.00;100685.53;5026899;28;20128;-68
2022/01/18 03:43:01;;;;;;;33.40;15.40;;;;;;;3.25;100.00;100681.91;5029716;28;20483;-68
2022/01/18 03:45:31;;;;;;;31.55;15.32;;;;;;;3.21;100.00;100682.25;5022697;28;20104;-68
2022/01/18 03:48:01;;;;;;;29.23;15.20;;;;;;;3.22;100.00;100690.16;5028727;28;20033;-67
2022/01/18 03:50:26;;;;;;;32.92;14.98;;;;;;;3.17;100.00;100676.28;5029768;28;20029;-67
2022/01/18 03:52:52;;;;;;;31.10;14.65;;;;;;;3.19;100.00;100690.38;5020753;28;20084;-67
2022/01/18 03:55:20;;;;;;;32.13;15.50;;;;;;;3.18;100.00;100683.31;5012049;28;20117;-67
2022/01/18 03:57:46;;;;;;;32.70;15.25;;;;;;;3.14;100.00;100684.50;5020679;28;20037;-68
2022/01/18 04:00:15;;;;;;;35.90;15.25;;;;;;;3.25;100.00;100697.13;5030163;28;20063;-67
2022/01/18 04:02:40;;;;;;;;;;;;;;;3.23;100.00;100697.22;5021751;28;20526;-68
2022/01/18 04:05:06;;;;;;;31.45;15.13;;;;;;;3.26;100.00;100697.00;5023770;28;19952;-67
2022/01/18 04:07:32;;;;;;;30.42;14.52;;;;;;;3.24;100.00;100698.06;5024225;28;20029;-69
2022/01/18 04:09:57;;;;;;;30.33;14.70;;;;;;;3.23;100.00;100707.91;5031729;28;20042;-69
2022/01/18 04:12:23;;;;;;;32.00;15.77;;;;;;;3.14;100.00;100700.53;5027917;28;20421;-75
2022/01/18 04:14:48;;;;;;;34.13;16.23;;;;;;;3.19;100.00;100703.75;5028946;28;20036;-81
2022/01/18 04:28:54;;;;;;;39.17;16.67;;;;;;;3.23;100.00;100718.63;5044671;28;20071;-76
2022/01/18 04:31:04;;;;;;;43.30;19.63;;;;;;;2.97;100.00;100687.53;5023860;28;20053;-75
2022/01/18 04:33:30;;;;;;;48.75;20.65;;;;;;;3.04;100.00;100710.19;5044165;28;20484;-78
2022/01/18 04:35:55;;;;;;;42.08;22.13;;;;;;;3.13;100.00;100720.22;5049945;28;20032;-79
2022/01/18 04:38:20;;;;;;;37.92;17.42;;;;;;;2.75;100.00;100673.00;5040036;28;20105;-74
2022/01/18 04:40:47;;;;;;;35.97;16.58;;;;;;;2.95;100.00;100710.84;5045086;28;20045;-78
2022/01/18 04:44:03;;;;;;;37.92;17.38;;;;;;;2.90;100.00;100707.63;5045933;28;20013;-78
2022/01/18 04:48:49;;;;;;;35.22;14.80;;;;;;;2.92;100.00;100716.41;5039617;28;20052;-76
2022/01/18 04:51:15;;;;;;;35.05;15.63;;;;;;;2.81;100.00;100693.94;5033784;28;20025;-75
2022/01/18 04:53:52;;;;;;;32.00;15.05;;;;;;;2.87;100.00;100697.16;5039401;28;20052;-74
2022/01/18 04:56:26;;;;;;;32.50;15.70;;;;;;;2.91;100.00;100726.25;5035141;28;20112;-74
2022/01/18 04:58:52;;;;;;;32.53;15.02;;;;;;;2.70;100.00;100691.16;5035280;28;20033;-73
2022/01/18 05:01:17;;;;;;;34.47;15.82;;;;;;;2.92;100.00;100727.09;5026675;28;20063;-74
2022/01/18 05:03:42;;;;;;;34.05;16.33;;;;;;;2.97;100.00;100725.81;5031735;28;20038;-74
2022/01/18 05:06:10;;;;;;;32.55;15.45;;;;;;;3.01;100.00;100735.34;5034623;28;20034;-71
2022/01/18 05:08:37;;;;;;;38.50;15.95;;;;;;;3.03;100.00;100740.56;5021434;28;20430;-73
2022/01/18 05:11:03;;;;;;;31.92;14.60;;;;;;;3.01;100.00;100746.03;5031006;28;20029;-74
2022/01/18 05:23:20;;;;;;;33.13;15.32;;;;;;;3.06;100.00;100743.00;5035285;28;20112;-72
2022/01/18 05:25:46;;;;;;;33.05;15.68;;;;;;;3.10;100.00;100746.34;5032242;28;20033;-74
2022/01/18 05:28:12;;;;;;;33.30;16.02;;;;;;;2.93;100.00;100718.94;5032288;28;20028;-74
2022/01/18 05:30:39;;;;;;;35.10;15.90;;;;;;;2.93;100.00;100723.44;5015935;28;20030;-73
2022/01/18 05:33:04;;;;;;;36.60;15.82;;;;;;;3.03;100.00;100737.88;5014766;28;20507;-74
2022/01/18 05:35:29;;;;;;;35.22;15.85;;;;;;;2.94;100.00;100741.22;5026365;28;20037;-74
2022/01/18 05:37:55;;;;;;;33.10;15.85;;;;;;;2.95;100.00;100753.63;5032168;28;20487;-76
2022/01/18 05:40:21;;;;;;;33.95;16.45;;;;;;;2.91;100.00;100747.63;5034670;28;20083;-68
2022/01/18 05:42:47;;;;;;;36.58;16.80;;;;;;;2.95;100.00;100742.91;5032186;28;20041;-68
2022/01/18 05:45:13;;;;;;;42.58;17.48;;;;;;;2.94;100.00;100746.56;5032130;28;20029;-68
2022/01/18 05:47:40;;;;;;;39.55;17.70;;;;;;;2.91;100.00;100736.94;5027105;28;20466;-75
2022/01/18 05:50:07;;;;;;;30.45;16.15;;;;;;;2.97;100.00;100741.84;5035639;28;20412;-73
2022/01/18 05:52:33;;;;;;;36.65;16.42;;;;;;;2.72;100.00;100704.41;5029493;28;20057;-76
2022/01/18 05:54:58;;;;;;;34.17;16.58;;;;;;;2.71;100.00;100716.06;5036188;28;20033;-73
2022/01/18 05:57:24;;;;;;;36.20;15.73;;;;;;;2.92;100.00;100751.16;5028155;28;20112;-75
2022/01/18 05:59:50;;;;;;;35.70;15.88;;;;;;;2.91;100.00;100752.97;5032276;28;20059;-73
2022/01/18 06:02:19;;;;;;;38.00;16.85;;;;;;;2.93;100.00;100753.69;5036462;28;20018;-78
2022/01/18 06:07:30;;;;;;;38.90;16.58;;;;;;;2.82;100.00;100724.19;5029497;28;20028;-74
2022/01/18 06:09:56;;;;;;;33.88;15.73;;;;;;;2.77;100.00;100715.63;5013995;28;20034;-74
2022/01/18 06:12:27;;;;;;;35.60;16.90;;;;;;;2.96;100.00;100757.97;5032083;28;20036;-74
2022/01/18 06:14:53;;;;;;;35.60;15.70;;;;;;;2.97;100.00;100757.03;5027605;28;20034;-73
2022/01/18 06:17:18;;;;;;;35.28;16.70;;;;;;;2.82;100.00;100726.88;5030116;28;20537;-76
2022/01/18 06:19:44;;;;;;;34.50;16.55;;;;;;;2.82;100.00;100753.59;5027338;28;20060;-77
2022/01/18 06:22:10;;;;;;;42.45;20.52;;;;;;;2.73;100.00;100771.13;5020858;28;20126;-75
2022/01/18 06:24:35;;;;;;;41.83;20.02;;;;;;;2.53;100.00;100742.22;5024535;28;20028;-75
2022/01/18 06:27:01;;;;;;;44.10;20.13;;;;;;;2.46;100.00;100751.63;5031077;28;20030;-73
2022/01/18 06:29:26;;;;;;;39.33;17.70;;;;;;;2.30;100.00;100744.63;5025561;28;20099;-76
2022/01/18 06:31:51;;;;;;;43.83;18.52;;;;;;;2.19;100.00;100740.00;5033006;28;20075;-74
2022/01/18 06:34:17;;;;;;;42.65;17.45;;;;;;;2.14;100.00;100749.28;5031668;28;20049;-73
2022/01/18 06:36:43;;;;;;;36.20;16.55;;;;;;;2.17;100.00;100774.00;5032501;28;20029;-73
2022/01/18 06:39:08;;;;;;;36.47;16.48;;;;;;;1.96;100.00;100765.56;5031540;28;20104;-74
2022/01/18 06:41:34;;;;;;;36.72;16.23;;;;;;;1.79;100.00;100755.13;5025528;28;20403;-76
2022/01/18 06:43:59;;;;;;;36.67;16.58;;;;;;;1.75;100.00;100764.25;5031161;28;20079;-73
2022/01/18 06:46:25;;;;;;;39.40;16.23;;;;;;;1.88;100.00;100781.19;5032377;28;20064;-74
2022/01/18 06:48:50;;;;;;;40.30;17.85;;;;;;;1.85;100.00;100776.06;5030192;28;20025;-71
2022/01/18 06:51:16;;;;;;;40.55;16.67;;;;;;;1.83;100.00;100787.78;5029078;28;20469;-73
2022/01/18 06:53:46;;;;;;;45.80;17.80;;;;;;;1.84;100.00;100802.88;5029864;28;20056;-72
2022/01/18 06:56:14;;;;;;;40.75;16.95;;;;;;;1.85;100.00;100812.59;5028478;28;20018;-72
2022/01/18 06:58:40;;;;;;;35.30;16.15;;;;;;;1.66;100.00;100783.56;5031719;28;20025;-73
2022/01/18 07:01:06;;;;;;;41.65;17.52;;;;;;;1.62;100.00;100790.03;5026478;28;20568;-72
2022/01/18 07:03:31;;;;;;;45.22;17.65;;;;;;;1.68;100.00;100809.19;5031582;28;20101;-76
2022/01/18 07:05:57;;;;;;;46.53;18.15;;;;;;;1.59;100.00;100785.72;5031097;28;20029;-74
2022/01/18 07:08:22;;;;;;;54.53;19.85;;;;;;;1.75;100.00;100812.28;5027741;28;20100;-71
2022/01/18 07:10:47;;;;;;;48.28;19.88;;;;;;;1.86;100.00;100823.16;5029471;28;20475;-75
2022/01/18 07:13:14;;;;;;;48.58;18.67;;;;;;;1.97;100.00;100827.81;5045389;28;20021;-76
2022/01/18 07:15:40;;;;;;;51.95;19.73;;;;;;;1.85;100.00;100784.06;5031833;28;20471;-71
2022/01/18 07:18:06;;;;;;;45.50;19.13;;;;;;;2.12;100.00;100820.63;5030286;28;20104;-73
2022/01/18 07:20:33;;;;;;;53.20;19.92;;;;;;;1.91;100.00;100778.34;5023851;28;20026;-72
2022/01/18 07:22:58;;;;;;;46.85;19.50;;;;;;;2.10;100.00;100812.72;5029229;28;20104;-73
2022/01/18 07:25:25;;;;;;;42.58;18.75;;;;;;;2.19;100.00;100828.13;5017732;28;20037;-72
2022/01/18 07:27:51;;;;;;;57.13;19.17;;;;;;;2.19;100.00;100814.78;5017459;28;20024;-76
2022/01/18 07:30:17;;;;;;;51.42;20.90;;;;;;;2.11;100.00;100802.88;5060830;28;20033;-72
2022/01/18 07:32:42;;;;;;;47.00;21.50;;;;;;;2.37;100.00;100835.91;5026941;28;20070;-73
2022/01/18 07:35:09;;;;;;;54.20;20.58;;;;;;;2.34;100.00;100828.94;5030920;28;20530;-76
2022/01/18 07:37:35;;;;;;;43.88;19.75;;;;;;;2.12;100.00;100792.13;5029600;28;20017;-75
2022/01/18 07:40:00;;;;;;;42.30;18.73;;;;;;;2.50;100.00;100843.97;5029001;28;20082;-69
2022/01/18 07:42:26;;;;;;;49.53;20.08;;;;;;;2.40;100.00;100815.19;5031203;28;20049;-71
2022/01/18 07:44:52;;;;;;;43.80;19.10;;;;;;;2.57;100.00;100839.94;5028086;28;20040;-70
2022/01/18 07:47:18;;;;;;;43.05;18.52;;;;;;;2.92;100.00;100836.72;5025596;28;20025;-67
2022/01/18 07:49:43;;;;;;;37.88;17.40;;;;;;;3.17;100.00;100842.09;5020285;28;20103;-67
2022/01/18 07:52:08;;;;;;;41.25;17.17;;;;;;;3.86;100.00;100839.06;5026541;28;20053;-67
2022/01/18 07:54:34;;;;;;;33.70;14.07;;;;;;;4.42;100.00;100839.41;5028300;28;20463;-67
2022/01/18 07:56:59;;;;;;;28.38;14.02;;;;;;;4.94;100.00;100824.75;5027429;28;20075;-67
2022/01/18 07:59:27;;;;;;;26.05;13.75;;;;;;;6.08;94.67;100842.72;5029272;28;20079;-67
2022/01/18 08:01:52;;;;;;;27.70;12.90;;;;;;;7.25;84.30;100823.88;5027286;28;20079;-67
2022/01/18 08:04:18;;;;;;;26.50;12.90;;;;;;;8.19;77.64;100812.09;5022391;28;20022;-67
2022/01/18 08:06:43;;;;;;;22.52;11.45;;;;;;;8.91;71.28;100836.06;5024477;28;20017;-71
2022/01/18 08:09:09;;;;;;;27.08;12.45;;;;;;;9.29;70.98;100784.84;5017824;28;20041;-71
2022/01/18 08:11:34;;;;;;;20.50;11.43;;;;;;;10.18;65.58;100809.47;5026601;28;20475;-72
2022/01/18 08:14:01;;;;;;;19.92;11.90;;;;;;;10.89;61.89;100797.88;5027971;28;20071;-71
2022/01/18 08:18:53;;;;;;;20.27;12.02;;;;;;;11.56;61.01;100822.56;5029404;28;20029;-71
2022/01/18 08:21:19;;;;;;;20.48;12.02;;;;;;;12.28;59.33;100819.53;5025242;28;20052;-73
2022/01/18 08:23:45;;;;;;;21.38;12.73;;;;;;;12.61;55.44;100812.31;5017513;28;20455;-71
2022/01/18 08:26:10;;;;;;;21.10;12.52;;;;;;;12.68;56.97;100801.63;5011881;28;20126;-71
2022/01/18 08:28:35;;;;;;;22.58;12.73;;;;;;;14.02;53.99;100806.56;5019458;28;20163;-72
2022/01/18 08:31:01;;;;;;;17.00;11.05;;;;;;;14.92;50.48;100814.22;5031151;28;20034;-74
2022/01/18 08:33:27;;;;;;;19.73;11.88;;;;;;;15.46;48.53;100833.19;5029789;28;20021;-74
2022/01/18 08:35:52;;;;;;;21.30;13.45;;;;;;;15.31;48.06;100840.47;5030660;28;20380;-73
2022/01/18 08:38:18;;;;;;;23.35;13.02;;;;;;;15.04;47.81;100815.50;5024969;28;20034;-74
2022/01/18 08:40:43;;;;;;;26.67;13.55;;;;;;;13.86;50.36;100844.69;5010162;28;20075;-73
2022/01/18 08:43:09;;;;;;;21.45;13.70;;;;;;;12.70;54.02;100838.47;5028702;28;20030;-72
2022/01/18 08:45:34;;;;;;;20.63;12.85;;;;;;;11.31;57.89;100829.69;5030674;28;20018;-73
2022/01/18 08:48:00;;;;;;;24.17;15.00;;;;;;;9.87;64.40;100861.16;5071502;22;20045;-73
2022/01/18 08:50:26;;;;;;;24.27;14.75;;;;;;;8.65;70.08;100856.50;5082260;28;20026;-66
2022/01/18 08:52:52;;;;;;;25.20;15.43;;;;;;;7.62;75.17;100847.66;5058354;28;20535;-68
2022/01/18 08:55:20;;;;;;;29.73;16.40;;;;;;;7.12;79.69;100858.22;5074476;28;20051;-73
2022/01/18 08:57:46;;;;;;;26.85;14.40;;;;;;;6.91;82.10;100854.66;5077353;28;20099;-74
2022/01/18 09:00:14;;;;;;;27.83;15.15;;;;;;;6.99;82.76;100849.50;5054888;28;20021;-72
2022/01/18 09:02:40;;;;;;;25.88;14.32;;;;;;;6.82;83.96;100836.63;5040834;28;20049;-73
2022/01/18 09:05:05;;;;;;;28.52;16.05;;;;;;;6.88;85.63;100850.41;5061198;28;20491;-73
2022/01/18 09:07:32;;;;;;;30.08;15.30;;;;;;;7.08;83.73;100845.19;5034989;28;20169;-73
2022/01/18 09:10:05;;;;;;;24.80;13.38;;;;;;;7.27;81.91;100831.00;5040699;28;20071;-74
2022/01/18 09:12:30;;;;;;;24.25;13.60;;;;;;;7.50;81.74;100843.31;5038349;28;20020;-72
2022/01/18 09:14:56;;;;;;;23.00;11.75;;;;;;;7.60;77.76;100832.63;5048603;28;20029;-74
2022/01/18 09:17:21;;;;;;;20.63;10.98;;;;;;;7.92;75.32;100851.31;5048273;28;20045;-74
2022/01/18 09:19:47;;;;;;;16.73;9.75;;;;;;;7.89;76.01;100843.50;5053298;28;20028;-74
2022/01/18 09:22:12;;;;;;;22.15;10.52;;;;;;;7.56;77.04;100837.41;5051883;28;20049;-74
2022/01/18 09:24:37;;;;;;;19.65;10.93;;;;;;;7.75;76.37;100854.63;5040238;28;20374;-73
2022/01/18 09:27:03;;;;;;;23.00;11.05;;;;;;;7.50;76.91;100843.31;5048952;28;20108;-73
2022/01/18 09:29:30;;;;;;;24.48;12.00;;;;;;;7.88;75.44;100853.41;5047396;28;20033;-77
2022/01/18 09:31:56;;;;;;;25.45;12.10;;;;;;;7.64;76.06;100840.25;5055405;28;20105;-78
2022/01/18 09:34:22;;;;;;;20.02;10.32;;;;;;;7.54;76.45;100828.59;5044990;28;20029;-74
2022/01/18 09:36:47;;;;;;;18.65;10.90;;;;;;;8.13;74.43;100856.66;5047224;28;20068;-70
2022/01/18 09:39:12;;;;;;;20.08;10.52;;;;;;;8.33;72.67;100844.03;5044940;28;20063;-71
2022/01/18 09:41:40;;;;;;;17.55;9.18;;;;;;;8.77;71.66;100855.38;5056547;28;20467;-71
2022/01/18 09:44:07;;;;;;;16.95;9.77;;;;;;;9.20;71.53;100864.91;5042888;28;20075;-71
2022/01/18 09:46:33;;;;;;;16.80;8.90;;;;;;;9.02;69.97;100862.06;5034344;28;20391;-74
2022/01/18 09:49:00;;;;;;;16.52;7.03;;;;;;;8.56;72.03;100863.56;5046032;28;20029;-73
2022/01/18 09:51:26;;;;;;;13.80;7.20;;;;;;;8.97;70.09;100872.44;5039180;28;20025;-72
2022/01/18 09:53:51;;;;;;;13.88;7.22;;;;;;;8.96;68.35;100868.88;5041588;28;20119;-71
2022/01/18 09:56:17;;;;;;;16.95;7.53;;;;;;;9.12;68.95;100870.16;5050715;28;20099;-74
2022/01/18 09:58:44;;;;;;;14.50;6.80;;;;;;;9.14;68.26;100881.66;5048046;28;20025;-73
2022/01/18 10:01:09;;;;;;;13.40;6.88;;;;;;;9.43;68.30;100879.78;5049016;28;20044;-75
2022/01/18 10:03:37;;;;;;;12.45;6.55;;;;;;;9.59;66.83;100875.63;5056537;28;20021;-73
2022/01/18 10:06:04;;;;;;;12.52;6.68;;;;;;;9.18;66.71;100877.69;5044917;28;20063;-74
2022/01/18 10:08:29;;;;;;;18.17;7.00;;;;;;;8.21;70.72;100856.81;5055385;28;20028;-73
2022/01/18 10:11:02;;;;;;;13.48;6.38;;;;;;;7.80;73.07;100871.25;5041202;28;20143;-75
2022/01/18 10:13:32;;;;;;;12.88;6.30;;;;;;;7.48;74.66;100866.84;5039989;28;20028;-75
2022/01/18 10:16:10;;;;;;;12.48;6.65;;;;;;;7.08;77.28;100855.97;5041699;28;20401;-72
2022/01/18 10:18:49;;;;;;;14.48;6.70;;;;;;;6.74;78.98;100866.88;5040713;28;20029;-76
2022/01/18 10:21:41;;;;;;;13.52;6.07;;;;;;;7.43;78.43;100869.91;5051594;28;20024;-72
2022/01/18 10:24:26;;;;;;;14.88;6.53;;;;;;;8.64;71.61;100860.19;5035958;28;20563;-75
2022/01/18 10:26:56;;;;;;;11.32;5.18;;;;;;;9.60;67.06;100856.56;5046221;28;20115;-74
2022/01/18 10:29:30;;;;;;;9.82;4.85;;;;;;;9.60;67.30;100829.53;5046452;28;20024;-79
2022/01/18 10:31:58;;;;;;;14.40;5.10;;;;;;;9.41;67.02;100848.50;5037145;28;20037;-78
2022/01/18 10:37:07;;;;;;;13.02;4.97;;;;;;;12.79;56.10;100825.75;5045158;28;20284;-77
2022/01/18 10:39:34;;;;;;;9.57;4.32;;;;;;;13.70;54.20;100816.53;5048239;28;20020;-76
2022/01/18 10:42:02;;;;;;;9.77;4.35;;;;;;;14.94;50.31;100811.31;5058869;28;20023;-76
2022/01/18 10:44:31;;;;;;;7.57;4.40;;;;;;;15.40;47.77;100817.53;5043873;28;20494;-78
2022/01/18 10:46:58;;;;;;;7.28;4.25;;;;;;;15.22;47.90;100809.72;5050092;28;20485;-75
2022/01/18 10:49:30;;;;;;;10.10;4.53;;;;;;;13.93;52.75;100813.91;5050781;28;20304;-75
2022/01/18 10:52:02;;;;;;;9.77;4.50;;;;;;;12.72;54.92;100803.00;5052263;28;20106;-73
2022/01/18 10:54:37;;;;;;;8.50;5.05;;;;;;;11.05;58.42;100821.53;5042412;28;20040;-74
2022/01/18 10:57:06;;;;;;;10.52;4.97;;;;;;;10.62;60.28;100816.91;5039601;28;20039;-77
2022/01/18 10:59:31;;;;;;;8.98;4.90;;;;;;;9.25;64.93;100803.19;5047213;28;20423;-77
2022/01/18 11:02:50;;;;;;;10.18;4.68;;;;;;;8.14;69.35;100817.91;5051376;28;20188;-78
2022/01/18 11:05:27;;;;;;;11.30;5.85;;;;;;;7.06;74.47;100793.31;5033528;28;20107;-77
2022/01/18 11:07:55;;;;;;;9.80;5.45;;;;;;;7.02;74.79;100800.78;5032723;28;20035;-73
2022/01/18 11:10:26;;;;;;;14.98;5.38;;;;;;;6.73;79.32;100793.38;5039392;28;20028;-76
2022/01/18 11:13:17;;;;;;;10.70;5.18;;;;;;;7.69;76.49;100799.47;5032099;28;20383;-73
2022/01/18 11:15:47;;;;;;;9.48;4.38;;;;;;;10.87;63.74;100777.34;5036808;28;20021;-73
2022/01/18 11:18:29;;;;;;;12.48;5.03;;;;;;;13.32;55.68;100782.81;5044115;28;20038;-74
2022/01/18 11:20:56;;;;;;;10.25;3.88;;;;;;;15.28;48.22;100767.22;5047757;28;20022;-74
2022/01/18 11:23:23;;;;;;;8.63;3.70;;;;;;;16.46;45.69;100765.44;5033022;28;20104;-74
2022/01/18 11:25:49;;;;;;;5.75;3.58;;;;;;;16.57;44.42;100762.19;5033698;28;20017;-74
2022/01/18 11:28:16;;;;;;;7.07;3.20;;;;;;;17.53;42.95;100754.38;5035914;28;20029;-74
2022/01/18 11:30:43;;;;;;;9.63;3.40;;;;;;;18.22;40.52;100750.72;5048066;28;20356;-74
2022/01/18 11:33:15;;;;;;;6.10;2.50;;;;;;;20.25;36.04;100736.44;5043934;28;20033;-74
2022/01/18 11:36:00;;;;;;;6.07;2.85;;;;;;;17.54;39.87;100761.53;5039611;28;20493;-74
2022/01/18 11:38:35;;;;;;;5.28;2.95;;;;;;;16.19;41.75;100751.47;5045817;28;20033;-74
2022/01/18 11:41:05;;;;;;;8.30;2.70;;;;;;;16.24;41.98;100764.53;5043211;28;20032;-74
2022/01/18 11:43:41;;;;;;;6.03;2.90;;;;;;;15.30;43.88;100763.28;5031507;28;20021;-74
2022/01/18 11:46:20;;;;;;;5.30;2.50;;;;;;;13.62;47.03;100767.59;5041341;28;20024;-74
2022/01/18 11:48:47;;;;;;;;;;;;;;;11.48;52.40;100771.03;5049839;28;20035;-74
2022/01/18 11:51:17;;;;;;;3.97;1.85;;;;;;;9.99;57.02;100767.19;5046644;28;19909;-74
2022/01/18 11:56:14;;;;;;;4.03;2.00;;;;;;;9.02;61.25;100761.31;5033408;28;20029;-74
2022/01/18 11:58:42;;;;;;;2.63;1.17;;;;;;;8.60;63.34;100775.97;5045096;28;20483;-74
2022/01/18 12:01:09;;;;;;;2.47;0.73;;;;;;;8.34;64.25;100772.94;5031828;28;20037;-73
2022/01/18 12:03:48;;;;;;;2.30;0.68;;;;;;;8.17;65.34;100762.84;5044515;28;20033;-73
2022/01/18 12:06:15;;;;;;;2.17;1.08;;;;;;;7.92;66.93;100757.00;5033973;28;20033;-74
2022/01/18 12:08:45;;;;;;;2.90;0.50;;;;;;;7.80;64.88;100736.53;5041342;28;20045;-74
2022/01/18 12:11:24;;;;;;;5.55;1.05;;;;;;;8.04;65.30;100760.41;5033424;28;20018;-75
2022/01/18 12:13:57;;;;;;;2.35;0.95;;;;;;;7.95;65.18;100751.31;5032371;28;20458;-74
2022/01/18 12:16:26;;;;;;;2.42;0.93;;;;;;;7.81;65.33;100754.41;5034584;28;20044;-74
2022/01/18 12:18:59;;;;;;;;;;;;;;;7.67;67.90;100756.47;5052710;28;20032;-73
2022/01/18 12:21:28;;;;;;;3.95;0.90;;;;;;;7.58;68.98;100754.63;5064889;28;19969;-73
2022/01/18 12:23:56;;;;;;;3.35;1.02;;;;;;;7.39;70.13;100758.09;5052968;28;20040;-74
2022/01/18 12:26:43;;;;;;;3.63;1.27;;;;;;;7.18;71.07;100758.13;5057368;28;20021;-75
2022/01/18 12:30:01;;;;;;;5.57;1.20;;;;;;;6.96;71.77;100758.25;5041849;28;20064;-74
2022/01/18 12:32:18;;;;;;;4.40;1.02;;;;;;;7.06;73.18;100759.19;5035838;28;20782;-74